sensor_id;sensor_type;location;lat;lon;timestamp;pressure;altitude;pressure_sealevel;temperature;humidity
21096;BME280;10706;49.036;12.112;2023-10-13T00:02:03;97839.53;;;15.61;90.63
21096;BME280;10706;49.036;12.112;2023-10-13T00:04:32;97834.41;;;15.54;91.48
21096;BME280;10706;49.036;12.112;2023-10-13T00:07:04;97831.97;;;15.53;91.65
21096;BME280;10706;49.036;12.112;2023-10-13T00:09:34;97837.38;;;15.53;90.62
21096;BME280;10706;49.036;12.112;2023-10-13T00:12:07;97834.94;;;15.51;91.01
21096;BME280;10706;49.036;12.112;2023-10-13T00:14:39;97845.16;;;15.49;91.45
21096;BME280;10706;49.036;12.112;2023-10-13T00:17:07;97862.38;;;15.53;90.85
21096;BME280;10706;49.036;12.112;2023-10-13T00:19:38;97848.97;;;15.59;90.52
21096;BME280;10706;49.036;12.112;2023-10-13T00:22:11;97844.91;;;15.61;90.43
21096;BME280;10706;49.036;12.112;2023-10-13T00:24:38;97851.13;;;15.67;90.50
21096;BME280;10706;49.036;12.112;2023-10-13T00:27:19;97844.69;;;15.68;90.44
21096;BME280;10706;49.036;12.112;2023-10-13T00:30:04;97838.19;;;15.69;90.29
21096;BME280;10706;49.036;12.112;2023-10-13T00:32:43;97836.88;;;15.66;90.54
21096;BME280;10706;49.036;12.112;2023-10-13T00:35:11;97826.91;;;15.67;90.36
21096;BME280;10706;49.036;12.112;2023-10-13T00:38:02;97832.25;;;15.57;91.04
21096;BME280;10706;49.036;12.112;2023-10-13T00:40:43;97820.34;;;15.37;91.39
21096;BME280;10706;49.036;12.112;2023-10-13T00:43:22;97820.66;;;15.46;90.95
21096;BME280;10706;49.036;12.112;2023-10-13T00:45:55;97820.94;;;15.49;90.85
21096;BME280;10706;49.036;12.112;2023-10-13T00:48:36;97819.84;;;15.45;90.62
21096;BME280;10706;49.036;12.112;2023-10-13T00:51:10;97818.78;;;15.41;90.65
21096;BME280;10706;49.036;12.112;2023-10-13T00:53:45;97812.28;;;15.37;90.82
21096;BME280;10706;49.036;12.112;2023-10-13T00:56:16;97814.94;;;15.27;91.28
21096;BME280;10706;49.036;12.112;2023-10-13T00:58:46;97812.59;;;15.51;89.96
21096;BME280;10706;49.036;12.112;2023-10-13T01:01:12;97819.38;;;15.64;89.38
21096;BME280;10706;49.036;12.112;2023-10-13T01:03:54;97826.63;;;15.68;88.37
21096;BME280;10706;49.036;12.112;2023-10-13T01:06:28;97818.78;;;15.41;89.67
21096;BME280;10706;49.036;12.112;2023-10-13T01:09:04;97816.03;;;15.31;90.91
21096;BME280;10706;49.036;12.112;2023-10-13T01:11:49;97811.75;;;15.30;90.79
21096;BME280;10706;49.036;12.112;2023-10-13T01:14:22;97817.66;;;15.37;90.99
21096;BME280;10706;49.036;12.112;2023-10-13T01:16:52;97823.88;;;15.38;91.14
21096;BME280;10706;49.036;12.112;2023-10-13T01:19:19;97822.78;;;15.39;90.86
21096;BME280;10706;49.036;12.112;2023-10-13T01:21:50;97820.06;;;15.28;91.83
21096;BME280;10706;49.036;12.112;2023-10-13T01:24:20;97810.63;;;15.26;91.79
21096;BME280;10706;49.036;12.112;2023-10-13T01:26:49;97808.50;;;15.33;90.83
21096;BME280;10706;49.036;12.112;2023-10-13T01:29:18;97814.25;;;15.62;89.43
21096;BME280;10706;49.036;12.112;2023-10-13T01:31:45;97812.81;;;15.34;91.32
21096;BME280;10706;49.036;12.112;2023-10-13T01:34:16;97811.72;;;15.25;91.55
21096;BME280;10706;49.036;12.112;2023-10-13T01:36:55;97807.13;;;15.25;91.02
21096;BME280;10706;49.036;12.112;2023-10-13T01:39:25;97808.97;;;15.14;91.11
21096;BME280;10706;49.036;12.112;2023-10-13T01:41:57;97812.72;;;15.08;91.67
21096;BME280;10706;49.036;12.112;2023-10-13T01:44:27;97812.16;;;15.06;91.28
21096;BME280;10706;49.036;12.112;2023-10-13T01:46:59;97811.09;;;15.02;92.31
21096;BME280;10706;49.036;12.112;2023-10-13T01:49:32;97820.75;;;15.03;91.76
21096;BME280;10706;49.036;12.112;2023-10-13T01:52:15;97813.88;;;15.28;90.75
21096;BME280;10706;49.036;12.112;2023-10-13T01:54:48;97829.09;;;15.07;91.47
21096;BME280;10706;49.036;12.112;2023-10-13T01:57:15;97827.19;;;14.97;91.86
21096;BME280;10706;49.036;12.112;2023-10-13T01:59:47;97818.34;;;15.02;92.03
21096;BME280;10706;49.036;12.112;2023-10-13T02:02:13;97814.84;;;14.96;92.38
21096;BME280;10706;49.036;12.112;2023-10-13T02:04:40;97821.78;;;14.87;92.99
21096;BME280;10706;49.036;12.112;2023-10-13T02:07:24;97815.56;;;14.81;93.37
21096;BME280;10706;49.036;12.112;2023-10-13T02:09:58;97814.72;;;14.81;94.44
21096;BME280;10706;49.036;12.112;2023-10-13T02:12:24;97815.28;;;14.83;94.52
21096;BME280;10706;49.036;12.112;2023-10-13T02:15:12;97809.63;;;14.84;93.37
21096;BME280;10706;49.036;12.112;2023-10-13T02:17:39;97816.34;;;14.82;93.67
21096;BME280;10706;49.036;12.112;2023-10-13T02:20:09;97812.31;;;14.79;93.66
21096;BME280;10706;49.036;12.112;2023-10-13T02:22:41;97820.94;;;14.81;93.46
21096;BME280;10706;49.036;12.112;2023-10-13T02:25:16;97813.38;;;14.78;93.35
21096;BME280;10706;49.036;12.112;2023-10-13T02:28:01;97811.19;;;14.75;93.92
21096;BME280;10706;49.036;12.112;2023-10-13T02:30:27;97809.34;;;14.75;93.36
21096;BME280;10706;49.036;12.112;2023-10-13T02:32:53;97811.69;;;14.67;93.49
21096;BME280;10706;49.036;12.112;2023-10-13T02:35:21;97809.31;;;14.70;93.53
21096;BME280;10706;49.036;12.112;2023-10-13T02:37:55;97799.91;;;14.68;93.34
21096;BME280;10706;49.036;12.112;2023-10-13T02:40:23;97799.41;;;14.38;95.43
21096;BME280;10706;49.036;12.112;2023-10-13T02:42:50;97796.56;;;14.55;94.47
21096;BME280;10706;49.036;12.112;2023-10-13T02:45:16;97799.03;;;14.57;94.03
21096;BME280;10706;49.036;12.112;2023-10-13T02:47:43;97801.78;;;14.35;96.16
21096;BME280;10706;49.036;12.112;2023-10-13T02:50:09;97796.75;;;14.49;95.21
21096;BME280;10706;49.036;12.112;2023-10-13T02:52:38;97804.31;;;14.52;95.26
21096;BME280;10706;49.036;12.112;2023-10-13T02:55:07;97804.72;;;14.33;95.87
21096;BME280;10706;49.036;12.112;2023-10-13T02:57:39;97803.06;;;14.27;97.01
21096;BME280;10706;49.036;12.112;2023-10-13T03:00:07;97807.97;;;14.35;97.46
21096;BME280;10706;49.036;12.112;2023-10-13T03:02:41;97799.88;;;14.30;97.65
21096;BME280;10706;49.036;12.112;2023-10-13T03:05:12;97792.44;;;14.43;97.44
21096;BME280;10706;49.036;12.112;2023-10-13T03:07:40;97790.59;;;14.48;96.13
21096;BME280;10706;49.036;12.112;2023-10-13T03:10:09;97792.28;;;14.22;97.17
21096;BME280;10706;49.036;12.112;2023-10-13T03:12:37;97790.03;;;14.46;97.23
21096;BME280;10706;49.036;12.112;2023-10-13T03:15:04;97789.53;;;14.54;96.95
21096;BME280;10706;49.036;12.112;2023-10-13T03:17:44;97786.84;;;14.49;97.03
21096;BME280;10706;49.036;12.112;2023-10-13T03:20:15;97784.50;;;14.58;96.47
21096;BME280;10706;49.036;12.112;2023-10-13T03:22:45;97791.00;;;14.62;96.20
21096;BME280;10706;49.036;12.112;2023-10-13T03:25:15;97787.47;;;14.62;96.11
21096;BME280;10706;49.036;12.112;2023-10-13T03:27:52;97794.22;;;14.64;96.61
21096;BME280;10706;49.036;12.112;2023-10-13T03:30:19;97791.19;;;14.55;97.05
21096;BME280;10706;49.036;12.112;2023-10-13T03:32:47;97789.28;;;14.51;97.40
21096;BME280;10706;49.036;12.112;2023-10-13T03:35:23;97797.31;;;14.46;96.70
21096;BME280;10706;49.036;12.112;2023-10-13T03:37:56;97794.22;;;14.69;95.97
21096;BME280;10706;49.036;12.112;2023-10-13T03:40:23;97797.72;;;14.65;96.18
21096;BME280;10706;49.036;12.112;2023-10-13T03:42:50;97795.53;;;14.62;95.93
21096;BME280;10706;49.036;12.112;2023-10-13T03:45:41;97791.59;;;14.74;95.48
21096;BME280;10706;49.036;12.112;2023-10-13T03:48:17;97788.59;;;14.71;95.59
21096;BME280;10706;49.036;12.112;2023-10-13T03:50:54;97784.81;;;14.67;95.11
21096;BME280;10706;49.036;12.112;2023-10-13T03:53:32;97788.84;;;14.64;95.46
21096;BME280;10706;49.036;12.112;2023-10-13T03:56:06;97787.25;;;14.68;94.97
21096;BME280;10706;49.036;12.112;2023-10-13T03:58:41;97791.00;;;14.67;95.46
21096;BME280;10706;49.036;12.112;2023-10-13T04:01:14;97792.09;;;14.66;95.49
21096;BME280;10706;49.036;12.112;2023-10-13T04:03:43;97786.72;;;14.66;95.22
21096;BME280;10706;49.036;12.112;2023-10-13T04:06:26;97780.50;;;14.66;94.64
21096;BME280;10706;49.036;12.112;2023-10-13T04:09:14;97784.28;;;14.65;94.54
21096;BME280;10706;49.036;12.112;2023-10-13T04:11:58;97776.69;;;14.56;94.71
21096;BME280;10706;49.036;12.112;2023-10-13T04:14:39;97774.22;;;14.50;95.19
21096;BME280;10706;49.036;12.112;2023-10-13T04:17:23;97778.81;;;14.54;95.07
21096;BME280;10706;49.036;12.112;2023-10-13T04:19:54;97774.13;;;14.39;95.79
21096;BME280;10706;49.036;12.112;2023-10-13T04:22:36;97773.38;;;14.07;98.10
21096;BME280;10706;49.036;12.112;2023-10-13T04:27:54;97777.94;;;14.44;96.59
21096;BME280;10706;49.036;12.112;2023-10-13T04:30:52;97767.72;;;14.41;94.96
21096;BME280;10706;49.036;12.112;2023-10-13T04:33:23;97768.16;;;14.27;95.13
21096;BME280;10706;49.036;12.112;2023-10-13T04:36:05;97773.34;;;14.02;96.69
21096;BME280;10706;49.036;12.112;2023-10-13T04:38:51;97773.31;;;13.96;98.43
21096;BME280;10706;49.036;12.112;2023-10-13T04:41:36;97774.63;;;13.94;98.37
21096;BME280;10706;49.036;12.112;2023-10-13T04:44:05;97774.78;;;13.82;98.37
21096;BME280;10706;49.036;12.112;2023-10-13T04:46:52;97762.47;;;13.86;98.58
21096;BME280;10706;49.036;12.112;2023-10-13T04:49:33;97761.13;;;13.84;98.73
21096;BME280;10706;49.036;12.112;2023-10-13T04:52:08;97768.34;;;13.83;98.60
21096;BME280;10706;49.036;12.112;2023-10-13T04:54:42;97764.19;;;13.97;98.50
21096;BME280;10706;49.036;12.112;2023-10-13T04:57:18;97756.94;;;13.98;97.35
21096;BME280;10706;49.036;12.112;2023-10-13T05:00:05;97758.38;;;13.78;98.81
21096;BME280;10706;49.036;12.112;2023-10-13T05:02:42;97766.13;;;13.75;99.79
21096;BME280;10706;49.036;12.112;2023-10-13T05:05:24;97765.38;;;13.79;99.65
21096;BME280;10706;49.036;12.112;2023-10-13T05:08:08;97759.44;;;13.77;99.94
21096;BME280;10706;49.036;12.112;2023-10-13T05:10:52;97767.47;;;13.72;99.64
21096;BME280;10706;49.036;12.112;2023-10-13T05:13:37;97770.56;;;13.91;99.01
21096;BME280;10706;49.036;12.112;2023-10-13T05:16:21;97780.38;;;14.08;97.94
21096;BME280;10706;49.036;12.112;2023-10-13T05:19:05;97771.38;;;13.92;97.84
21096;BME280;10706;49.036;12.112;2023-10-13T05:21:51;97777.25;;;13.89;98.24
21096;BME280;10706;49.036;12.112;2023-10-13T05:24:39;97769.97;;;13.84;98.20
21096;BME280;10706;49.036;12.112;2023-10-13T05:27:23;97766.34;;;13.68;98.31
21096;BME280;10706;49.036;12.112;2023-10-13T05:30:07;97774.06;;;13.92;98.40
21096;BME280;10706;49.036;12.112;2023-10-13T05:32:52;97778.09;;;13.89;97.83
21096;BME280;10706;49.036;12.112;2023-10-13T05:35:36;97772.41;;;13.86;97.15
21096;BME280;10706;49.036;12.112;2023-10-13T05:38:21;97782.06;;;13.87;97.47
21096;BME280;10706;49.036;12.112;2023-10-13T05:41:06;97790.75;;;13.67;98.95
21096;BME280;10706;49.036;12.112;2023-10-13T05:43:50;97789.53;;;13.52;99.30
21096;BME280;10706;49.036;12.112;2023-10-13T05:46:35;97789.94;;;13.66;99.11
21096;BME280;10706;49.036;12.112;2023-10-13T05:49:08;97780.06;;;13.72;98.33
21096;BME280;10706;49.036;12.112;2023-10-13T05:51:37;97794.75;;;13.64;99.14
21096;BME280;10706;49.036;12.112;2023-10-13T05:54:04;97788.63;;;13.69;98.40
21096;BME280;10706;49.036;12.112;2023-10-13T05:56:43;97785.84;;;13.58;100.00
21096;BME280;10706;49.036;12.112;2023-10-13T05:59:47;97791.53;;;13.40;100.00
21096;BME280;10706;49.036;12.112;2023-10-13T06:02:32;97787.91;;;13.51;100.00
21096;BME280;10706;49.036;12.112;2023-10-13T06:05:17;97789.25;;;13.81;98.51
21096;BME280;10706;49.036;12.112;2023-10-13T06:08:02;97788.66;;;13.74;98.36
21096;BME280;10706;49.036;12.112;2023-10-13T06:10:50;97793.78;;;13.75;99.47
21096;BME280;10706;49.036;12.112;2023-10-13T06:13:45;97797.91;;;13.88;98.27
21096;BME280;10706;49.036;12.112;2023-10-13T06:16:29;97801.59;;;14.09;97.87
21096;BME280;10706;49.036;12.112;2023-10-13T06:19:23;97798.69;;;14.16;97.17
21096;BME280;10706;49.036;12.112;2023-10-13T06:22:08;97802.47;;;14.20;96.78
21096;BME280;10706;49.036;12.112;2023-10-13T06:24:52;97805.16;;;14.20;97.25
21096;BME280;10706;49.036;12.112;2023-10-13T06:27:37;97807.31;;;14.18;96.47
21096;BME280;10706;49.036;12.112;2023-10-13T06:30:25;97809.03;;;14.34;96.32
21096;BME280;10706;49.036;12.112;2023-10-13T06:32:50;97804.31;;;14.14;96.42
21096;BME280;10706;49.036;12.112;2023-10-13T06:35:17;97804.44;;;14.30;96.25
21096;BME280;10706;49.036;12.112;2023-10-13T06:37:50;97805.81;;;14.32;96.59
21096;BME280;10706;49.036;12.112;2023-10-13T06:40:16;97798.56;;;14.33;96.52
21096;BME280;10706;49.036;12.112;2023-10-13T06:42:52;97799.88;;;14.30;96.33
21096;BME280;10706;49.036;12.112;2023-10-13T06:45:19;97803.78;;;14.50;95.91
21096;BME280;10706;49.036;12.112;2023-10-13T06:47:47;97804.88;;;14.54;94.82
21096;BME280;10706;49.036;12.112;2023-10-13T06:50:18;97798.19;;;14.56;94.74
21096;BME280;10706;49.036;12.112;2023-10-13T06:52:50;97795.16;;;14.48;95.69
21096;BME280;10706;49.036;12.112;2023-10-13T06:55:24;97805.03;;;14.74;94.78
21096;BME280;10706;49.036;12.112;2023-10-13T06:57:56;97800.44;;;14.37;96.17
21096;BME280;10706;49.036;12.112;2023-10-13T07:00:28;97800.28;;;14.49;96.26
21096;BME280;10706;49.036;12.112;2023-10-13T07:02:56;97809.34;;;14.75;94.36
21096;BME280;10706;49.036;12.112;2023-10-13T07:05:41;97806.00;;;15.06;93.40
21096;BME280;10706;49.036;12.112;2023-10-13T07:08:07;97803.97;;;14.75;94.03
21096;BME280;10706;49.036;12.112;2023-10-13T07:10:35;97811.00;;;14.87;94.17
21096;BME280;10706;49.036;12.112;2023-10-13T07:13:14;97813.09;;;15.32;93.17
21096;BME280;10706;49.036;12.112;2023-10-13T07:15:40;97806.06;;;15.31;92.15
21096;BME280;10706;49.036;12.112;2023-10-13T07:18:15;97812.84;;;15.44;92.92
21096;BME280;10706;49.036;12.112;2023-10-13T07:20:48;97811.75;;;15.40;90.64
21096;BME280;10706;49.036;12.112;2023-10-13T07:23:14;97817.13;;;15.30;91.04
21096;BME280;10706;49.036;12.112;2023-10-13T07:25:55;97826.88;;;15.51;91.87
21096;BME280;10706;49.036;12.112;2023-10-13T07:28:31;97819.63;;;15.72;90.86
21096;BME280;10706;49.036;12.112;2023-10-13T07:31:00;97816.63;;;15.53;90.12
21096;BME280;10706;49.036;12.112;2023-10-13T07:33:26;97822.13;;;15.89;89.83
21096;BME280;10706;49.036;12.112;2023-10-13T07:36:05;97813.78;;;15.96;89.94
21096;BME280;10706;49.036;12.112;2023-10-13T07:38:45;97813.78;;;15.96;89.08
21096;BME280;10706;49.036;12.112;2023-10-13T07:41:15;97805.44;;;16.23;88.43
21096;BME280;10706;49.036;12.112;2023-10-13T07:43:47;97803.28;;;16.25;88.57
21096;BME280;10706;49.036;12.112;2023-10-13T07:46:13;97804.63;;;16.23;88.48
21096;BME280;10706;49.036;12.112;2023-10-13T07:48:40;97806.81;;;16.26;87.88
21096;BME280;10706;49.036;12.112;2023-10-13T07:51:08;97810.50;;;16.61;87.60
21096;BME280;10706;49.036;12.112;2023-10-13T07:53:42;97799.19;;;16.59;87.09
21096;BME280;10706;49.036;12.112;2023-10-13T07:56:10;97806.50;;;16.43;86.50
21096;BME280;10706;49.036;12.112;2023-10-13T07:58:39;97806.22;;;16.60;86.87
21096;BME280;10706;49.036;12.112;2023-10-13T08:01:24;97798.31;;;16.99;85.38
21096;BME280;10706;49.036;12.112;2023-10-13T08:03:51;97805.84;;;17.07;84.82
21096;BME280;10706;49.036;12.112;2023-10-13T08:06:30;97795.13;;;16.77;84.03
21096;BME280;10706;49.036;12.112;2023-10-13T08:08:56;97806.69;;;17.03;83.13
21096;BME280;10706;49.036;12.112;2023-10-13T08:11:38;97801.97;;;17.29;82.29
21096;BME280;10706;49.036;12.112;2023-10-13T08:14:05;97806.25;;;17.35;81.55
21096;BME280;10706;49.036;12.112;2023-10-13T08:16:43;97798.78;;;17.17;83.30
21096;BME280;10706;49.036;12.112;2023-10-13T08:19:27;97796.78;;;17.43;82.56
21096;BME280;10706;49.036;12.112;2023-10-13T08:21:57;97790.63;;;17.32;81.61
21096;BME280;10706;49.036;12.112;2023-10-13T08:24:25;97787.91;;;17.32;81.39
21096;BME280;10706;49.036;12.112;2023-10-13T08:27:20;97793.53;;;17.46;81.49
21096;BME280;10706;49.036;12.112;2023-10-13T08:30:14;97790.25;;;17.49;81.38
21096;BME280;10706;49.036;12.112;2023-10-13T08:32:54;97794.31;;;17.96;79.56
21096;BME280;10706;49.036;12.112;2023-10-13T08:35:21;97778.16;;;18.20;79.54
21096;BME280;10706;49.036;12.112;2023-10-13T08:37:56;97780.44;;;18.08;78.66
21096;BME280;10706;49.036;12.112;2023-10-13T08:40:27;97778.13;;;18.25;77.88
21096;BME280;10706;49.036;12.112;2023-10-13T08:43:13;97788.31;;;18.34;76.67
21096;BME280;10706;49.036;12.112;2023-10-13T08:45:41;97787.34;;;18.24;76.03
21096;BME280;10706;49.036;12.112;2023-10-13T08:48:11;97792.78;;;18.19;75.50
21096;BME280;10706;49.036;12.112;2023-10-13T08:50:43;97793.72;;;18.63;75.06
21096;BME280;10706;49.036;12.112;2023-10-13T08:53:25;97785.94;;;18.86;72.40
21096;BME280;10706;49.036;12.112;2023-10-13T08:56:10;97774.59;;;18.83;71.46
21096;BME280;10706;49.036;12.112;2023-10-13T08:58:41;97778.38;;;18.82;69.81
21096;BME280;10706;49.036;12.112;2023-10-13T09:04:16;97774.69;;;19.40;69.13
21096;BME280;10706;49.036;12.112;2023-10-13T09:07:04;97773.97;;;19.35;67.41
21096;BME280;10706;49.036;12.112;2023-10-13T09:09:46;97777.91;;;19.42;66.06
21096;BME280;10706;49.036;12.112;2023-10-13T09:12:14;97775.03;;;19.58;65.99
21096;BME280;10706;49.036;12.112;2023-10-13T09:14:44;97763.97;;;19.73;65.76
21096;BME280;10706;49.036;12.112;2023-10-13T09:17:27;97774.75;;;19.78;63.41
21096;BME280;10706;49.036;12.112;2023-10-13T09:20:06;97776.03;;;19.62;65.26
21096;BME280;10706;49.036;12.112;2023-10-13T09:22:58;97772.16;;;19.68;62.76
21096;BME280;10706;49.036;12.112;2023-10-13T09:25:32;97767.25;;;19.70;63.16
21096;BME280;10706;49.036;12.112;2023-10-13T09:28:22;97780.81;;;19.89;62.60
21096;BME280;10706;49.036;12.112;2023-10-13T09:30:50;97772.88;;;19.93;62.62
21096;BME280;10706;49.036;12.112;2023-10-13T09:33:24;97768.13;;;20.36;61.38
21096;BME280;10706;49.036;12.112;2023-10-13T09:36:02;97768.75;;;20.14;60.69
21096;BME280;10706;49.036;12.112;2023-10-13T09:38:35;97765.00;;;20.43;60.24
21096;BME280;10706;49.036;12.112;2023-10-13T09:41:04;97763.50;;;20.51;59.84
21096;BME280;10706;49.036;12.112;2023-10-13T09:43:52;97753.47;;;20.05;59.94
21096;BME280;10706;49.036;12.112;2023-10-13T09:46:26;97754.34;;;20.47;60.36
21096;BME280;10706;49.036;12.112;2023-10-13T09:49:15;97757.22;;;20.69;59.39
21096;BME280;10706;49.036;12.112;2023-10-13T09:52:01;97743.13;;;20.53;58.52
21096;BME280;10706;49.036;12.112;2023-10-13T09:54:35;97753.41;;;20.98;58.96
21096;BME280;10706;49.036;12.112;2023-10-13T09:57:17;97744.13;;;21.13;58.49
21096;BME280;10706;49.036;12.112;2023-10-13T10:00:00;97740.91;;;21.11;57.31
21096;BME280;10706;49.036;12.112;2023-10-13T10:02:34;97743.78;;;21.28;57.96
21096;BME280;10706;49.036;12.112;2023-10-13T10:05:00;97734.66;;;21.38;57.78
21096;BME280;10706;49.036;12.112;2023-10-13T10:07:57;97732.00;;;21.47;56.11
21096;BME280;10706;49.036;12.112;2023-10-13T10:10:48;97736.13;;;21.81;55.69
21096;BME280;10706;49.036;12.112;2023-10-13T10:13:39;97731.59;;;21.53;54.97
21096;BME280;10706;49.036;12.112;2023-10-13T10:16:11;97723.16;;;22.00;54.18
21096;BME280;10706;49.036;12.112;2023-10-13T10:18:45;97713.63;;;22.11;53.79
21096;BME280;10706;49.036;12.112;2023-10-13T10:21:11;97719.06;;;22.34;53.18
21096;BME280;10706;49.036;12.112;2023-10-13T10:23:38;97715.09;;;22.18;52.22
21096;BME280;10706;49.036;12.112;2023-10-13T10:26:13;97719.25;;;22.38;51.17
21096;BME280;10706;49.036;12.112;2023-10-13T10:28:43;97714.34;;;22.57;49.86
21096;BME280;10706;49.036;12.112;2023-10-13T10:31:12;97707.59;;;22.95;48.64
21096;BME280;10706;49.036;12.112;2023-10-13T10:33:40;97707.41;;;22.91;48.45
21096;BME280;10706;49.036;12.112;2023-10-13T10:36:07;97712.91;;;23.08;47.25
21096;BME280;10706;49.036;12.112;2023-10-13T10:38:53;97709.75;;;23.24;47.17
21096;BME280;10706;49.036;12.112;2023-10-13T10:41:26;97707.97;;;23.37;45.93
21096;BME280;10706;49.036;12.112;2023-10-13T10:43:58;97701.88;;;23.31;46.11
21096;BME280;10706;49.036;12.112;2023-10-13T10:46:29;97696.94;;;23.42;46.14
21096;BME280;10706;49.036;12.112;2023-10-13T10:49:04;97695.16;;;23.55;45.34
21096;BME280;10706;49.036;12.112;2023-10-13T10:51:40;97686.34;;;23.75;42.22
21096;BME280;10706;49.036;12.112;2023-10-13T10:54:20;97686.00;;;23.85;41.03
21096;BME280;10706;49.036;12.112;2023-10-13T10:56:47;97683.91;;;23.91;42.38
21096;BME280;10706;49.036;12.112;2023-10-13T10:59:18;97674.47;;;24.44;40.33
21096;BME280;10706;49.036;12.112;2023-10-13T11:01:46;97665.41;;;24.61;38.81
21096;BME280;10706;49.036;12.112;2023-10-13T11:04:18;97664.09;;;24.97;37.94
21096;BME280;10706;49.036;12.112;2023-10-13T11:06:53;97665.81;;;24.42;38.52
21096;BME280;10706;49.036;12.112;2023-10-13T11:09:30;97649.81;;;24.92;38.55
21096;BME280;10706;49.036;12.112;2023-10-13T11:14:32;97645.41;;;24.78;37.49
21096;BME280;10706;49.036;12.112;2023-10-13T11:16:59;97640.72;;;24.49;37.78
21096;BME280;10706;49.036;12.112;2023-10-13T11:19:42;97636.09;;;25.21;39.29
21096;BME280;10706;49.036;12.112;2023-10-13T11:22:20;97634.03;;;25.18;37.75
21096;BME280;10706;49.036;12.112;2023-10-13T11:24:59;97633.56;;;25.16;36.58
21096;BME280;10706;49.036;12.112;2023-10-13T11:27:30;97627.59;;;25.44;37.87
21096;BME280;10706;49.036;12.112;2023-10-13T11:30:14;97620.94;;;25.33;37.23
21096;BME280;10706;49.036;12.112;2023-10-13T11:33:01;97610.09;;;24.94;37.16
21096;BME280;10706;49.036;12.112;2023-10-13T11:35:38;97613.44;;;25.00;37.69
21096;BME280;10706;49.036;12.112;2023-10-13T11:38:17;97596.53;;;25.28;36.61
21096;BME280;10706;49.036;12.112;2023-10-13T11:40:58;97599.84;;;25.33;36.71
21096;BME280;10706;49.036;12.112;2023-10-13T11:46:01;97587.88;;;25.92;34.99
21096;BME280;10706;49.036;12.112;2023-10-13T11:48:37;97588.59;;;25.68;34.66
21096;BME280;10706;49.036;12.112;2023-10-13T11:51:04;97588.78;;;25.96;36.36
21096;BME280;10706;49.036;12.112;2023-10-13T11:53:34;97585.44;;;25.91;36.43
21096;BME280;10706;49.036;12.112;2023-10-13T11:56:01;97579.09;;;26.11;36.09
21096;BME280;10706;49.036;12.112;2023-10-13T11:58:34;97570.31;;;26.06;35.74
21096;BME280;10706;49.036;12.112;2023-10-13T12:01:01;97574.56;;;26.28;36.42
21096;BME280;10706;49.036;12.112;2023-10-13T12:03:48;97568.72;;;26.42;36.14
21096;BME280;10706;49.036;12.112;2023-10-13T12:06:34;97558.31;;;26.35;33.57
21096;BME280;10706;49.036;12.112;2023-10-13T12:09:02;97560.50;;;26.66;33.95
21096;BME280;10706;49.036;12.112;2023-10-13T12:11:49;97559.22;;;27.61;32.39
21096;BME280;10706;49.036;12.112;2023-10-13T12:14:20;97553.44;;;27.34;36.04
21096;BME280;10706;49.036;12.112;2023-10-13T12:17:36;97556.00;;;28.35;35.59
21096;BME280;10706;49.036;12.112;2023-10-13T12:20:04;97540.81;;;27.89;36.26
21096;BME280;10706;49.036;12.112;2023-10-13T12:22:44;97535.94;;;27.99;36.07
21096;BME280;10706;49.036;12.112;2023-10-13T12:25:21;97532.69;;;27.49;31.58
21096;BME280;10706;49.036;12.112;2023-10-13T12:27:58;97531.78;;;27.45;29.73
21096;BME280;10706;49.036;12.112;2023-10-13T12:30:38;97535.72;;;27.60;35.30
21096;BME280;10706;49.036;12.112;2023-10-13T12:33:20;97528.75;;;28.61;32.81
21096;BME280;10706;49.036;12.112;2023-10-13T12:35:58;97530.16;;;28.91;31.68
21096;BME280;10706;49.036;12.112;2023-10-13T12:38:36;97524.84;;;29.40;33.03
21096;BME280;10706;49.036;12.112;2023-10-13T12:41:05;97515.66;;;30.25;33.71
21096;BME280;10706;49.036;12.112;2023-10-13T12:43:50;97508.22;;;30.83;31.49
21096;BME280;10706;49.036;12.112;2023-10-13T12:46:34;97498.09;;;31.65;30.65
21096;BME280;10706;49.036;12.112;2023-10-13T12:49:20;97490.28;;;31.74;30.44
21096;BME280;10706;49.036;12.112;2023-10-13T12:52:05;97488.97;;;32.06;31.22
21096;BME280;10706;49.036;12.112;2023-10-13T12:54:42;97477.16;;;32.79;28.79
21096;BME280;10706;49.036;12.112;2023-10-13T12:57:15;97476.44;;;32.23;29.16
21096;BME280;10706;49.036;12.112;2023-10-13T12:59:42;97474.41;;;31.64;28.88
21096;BME280;10706;49.036;12.112;2023-10-13T13:02:08;97476.72;;;32.73;28.51
21096;BME280;10706;49.036;12.112;2023-10-13T13:04:43;97468.47;;;32.80;28.49
21096;BME280;10706;49.036;12.112;2023-10-13T13:07:16;97458.78;;;33.62;27.17
21096;BME280;10706;49.036;12.112;2023-10-13T13:09:43;97463.81;;;32.22;27.99
21096;BME280;10706;49.036;12.112;2023-10-13T13:12:09;97454.81;;;33.48;26.39
21096;BME280;10706;49.036;12.112;2023-10-13T13:14:38;97454.72;;;33.09;27.08
21096;BME280;10706;49.036;12.112;2023-10-13T13:17:07;97447.31;;;32.40;28.27
21096;BME280;10706;49.036;12.112;2023-10-13T13:19:37;97444.28;;;31.96;29.40
21096;BME280;10706;49.036;12.112;2023-10-13T13:22:07;97433.47;;;31.73;29.79
21096;BME280;10706;49.036;12.112;2023-10-13T13:24:43;97434.13;;;31.56;30.30
21096;BME280;10706;49.036;12.112;2023-10-13T13:27:16;97443.06;;;32.49;29.37
21096;BME280;10706;49.036;12.112;2023-10-13T13:29:48;97432.19;;;33.07;29.41
21096;BME280;10706;49.036;12.112;2023-10-13T13:32:13;97425.13;;;32.22;30.31
21096;BME280;10706;49.036;12.112;2023-10-13T13:34:52;97425.56;;;31.24;26.52
21096;BME280;10706;49.036;12.112;2023-10-13T13:37:34;97418.56;;;30.62;25.39
21096;BME280;10706;49.036;12.112;2023-10-13T13:40:04;97414.13;;;29.97;25.27
21096;BME280;10706;49.036;12.112;2023-10-13T13:42:44;97410.19;;;30.24;24.12
21096;BME280;10706;49.036;12.112;2023-10-13T13:45:18;97406.78;;;29.78;24.67